sensor_id;sensor_type;location;lat;lon;timestamp;P1;durP1;ratioP1;P2;durP2;ratioP2
25637;SDS011;13496;51.040;13.680;2023-08-20T00:03:50;8.45;;;7.65;;
25637;SDS011;13496;51.040;13.680;2023-08-20T00:08:53;9.10;;;8.00;;
25637;SDS011;13496;51.040;13.680;2023-08-20T00:13:54;8.45;;;7.65;;
25637;SDS011;13496;51.040;13.680;2023-08-20T00:18:56;10.18;;;8.15;;
25637;SDS011;13496;51.040;13.680;2023-08-20T00:23:58;9.15;;;8.27;;
25637;SDS011;13496;51.040;13.680;2023-08-20T00:29:00;8.82;;;8.02;;
25637;SDS011;13496;51.040;13.680;2023-08-20T00:34:01;8.63;;;7.93;;
25637;SDS011;13496;51.040;13.680;2023-08-20T00:39:03;8.63;;;7.75;;
25637;SDS011;13496;51.040;13.680;2023-08-20T00:44:05;9.00;;;8.23;;
25637;SDS011;13496;51.040;13.680;2023-08-20T00:49:07;9.07;;;8.27;;
25637;SDS011;13496;51.040;13.680;2023-08-20T00:54:09;9.05;;;8.25;;
25637;SDS011;13496;51.040;13.680;2023-08-20T00:59:11;9.27;;;8.57;;
25637;SDS011;13496;51.040;13.680;2023-08-20T01:04:13;9.60;;;8.70;;
25637;SDS011;13496;51.040;13.680;2023-08-20T01:14:42;9.85;;;8.95;;
25637;SDS011;13496;51.040;13.680;2023-08-20T01:19:44;9.93;;;9.13;;
25637;SDS011;13496;51.040;13.680;2023-08-20T01:25:10;9.75;;;8.95;;
25637;SDS011;13496;51.040;13.680;2023-08-20T01:30:26;9.57;;;8.65;;
25637;SDS011;13496;51.040;13.680;2023-08-20T01:35:28;9.45;;;8.65;;
25637;SDS011;13496;51.040;13.680;2023-08-20T01:40:37;9.85;;;8.93;;
25637;SDS011;13496;51.040;13.680;2023-08-20T01:45:39;9.68;;;8.77;;
25637;SDS011;13496;51.040;13.680;2023-08-20T01:50:41;9.80;;;8.95;;
25637;SDS011;13496;51.040;13.680;2023-08-20T01:55:42;10.05;;;9.20;;
25637;SDS011;13496;51.040;13.680;2023-08-20T02:00:45;11.27;;;9.07;;
25637;SDS011;13496;51.040;13.680;2023-08-20T02:05:47;10.38;;;9.57;;
25637;SDS011;13496;51.040;13.680;2023-08-20T02:10:48;9.65;;;8.90;;
25637;SDS011;13496;51.040;13.680;2023-08-20T02:15:57;10.52;;;9.60;;
25637;SDS011;13496;51.040;13.680;2023-08-20T02:21:01;10.60;;;9.70;;
25637;SDS011;13496;51.040;13.680;2023-08-20T02:26:05;9.82;;;9.02;;
25637;SDS011;13496;51.040;13.680;2023-08-20T02:31:07;10.45;;;9.50;;
25637;SDS011;13496;51.040;13.680;2023-08-20T02:36:08;10.48;;;9.63;;
25637;SDS011;13496;51.040;13.680;2023-08-20T02:41:10;9.95;;;8.95;;
25637;SDS011;13496;51.040;13.680;2023-08-20T02:46:13;10.43;;;9.63;;
25637;SDS011;13496;51.040;13.680;2023-08-20T02:51:15;9.43;;;8.63;;
25637;SDS011;13496;51.040;13.680;2023-08-20T02:56:16;10.23;;;9.43;;
25637;SDS011;13496;51.040;13.680;2023-08-20T03:01:22;9.80;;;9.00;;
25637;SDS011;13496;51.040;13.680;2023-08-20T03:06:25;9.98;;;9.02;;
25637;SDS011;13496;51.040;13.680;2023-08-20T03:11:27;9.65;;;8.85;;
25637;SDS011;13496;51.040;13.680;2023-08-20T03:16:28;8.93;;;8.20;;
25637;SDS011;13496;51.040;13.680;2023-08-20T03:21:30;9.10;;;8.30;;
25637;SDS011;13496;51.040;13.680;2023-08-20T03:26:32;9.40;;;8.60;;
25637;SDS011;13496;51.040;13.680;2023-08-20T03:31:34;8.57;;;7.78;;
25637;SDS011;13496;51.040;13.680;2023-08-20T03:36:36;9.23;;;7.50;;
25637;SDS011;13496;51.040;13.680;2023-08-20T03:41:38;8.40;;;7.60;;
25637;SDS011;13496;51.040;13.680;2023-08-20T03:46:40;7.82;;;7.10;;
25637;SDS011;13496;51.040;13.680;2023-08-20T03:51:42;10.13;;;7.15;;
25637;SDS011;13496;51.040;13.680;2023-08-20T03:56:44;7.25;;;6.55;;
25637;SDS011;13496;51.040;13.680;2023-08-20T04:01:46;7.78;;;7.00;;
25637;SDS011;13496;51.040;13.680;2023-08-20T04:06:47;7.35;;;6.75;;
25637;SDS011;13496;51.040;13.680;2023-08-20T04:11:49;9.65;;;7.40;;
25637;SDS011;13496;51.040;13.680;2023-08-20T04:16:51;8.02;;;7.18;;
25637;SDS011;13496;51.040;13.680;2023-08-20T04:21:53;7.63;;;6.90;;
25637;SDS011;13496;51.040;13.680;2023-08-20T04:26:54;7.72;;;7.03;;
25637;SDS011;13496;51.040;13.680;2023-08-20T04:32:01;7.47;;;6.78;;
25637;SDS011;13496;51.040;13.680;2023-08-20T04:37:03;7.82;;;6.32;;
25637;SDS011;13496;51.040;13.680;2023-08-20T04:42:05;8.05;;;7.20;;
25637;SDS011;13496;51.040;13.680;2023-08-20T04:47:10;7.75;;;7.05;;
25637;SDS011;13496;51.040;13.680;2023-08-20T04:52:14;7.20;;;6.50;;
25637;SDS011;13496;51.040;13.680;2023-08-20T04:57:16;8.38;;;7.28;;
25637;SDS011;13496;51.040;13.680;2023-08-20T05:02:18;7.35;;;6.75;;
25637;SDS011;13496;51.040;13.680;2023-08-20T05:07:26;8.23;;;7.40;;
25637;SDS011;13496;51.040;13.680;2023-08-20T05:12:28;9.25;;;7.20;;
25637;SDS011;13496;51.040;13.680;2023-08-20T05:17:30;7.18;;;6.57;;
25637;SDS011;13496;51.040;13.680;2023-08-20T05:22:33;7.40;;;6.55;;
25637;SDS011;13496;51.040;13.680;2023-08-20T05:27:34;7.28;;;6.45;;
25637;SDS011;13496;51.040;13.680;2023-08-20T05:32:37;7.30;;;6.60;;
25637;SDS011;13496;51.040;13.680;2023-08-20T05:37:39;7.90;;;7.10;;
25637;SDS011;13496;51.040;13.680;2023-08-20T05:42:41;7.88;;;7.07;;
25637;SDS011;13496;51.040;13.680;2023-08-20T05:47:43;6.88;;;6.32;;
25637;SDS011;13496;51.040;13.680;2023-08-20T05:52:46;7.43;;;6.72;;
25637;SDS011;13496;51.040;13.680;2023-08-20T05:57:47;7.07;;;6.50;;
25637;SDS011;13496;51.040;13.680;2023-08-20T06:02:49;8.80;;;7.15;;
25637;SDS011;13496;51.040;13.680;2023-08-20T06:07:51;7.38;;;6.68;;
25637;SDS011;13496;51.040;13.680;2023-08-20T06:12:53;7.82;;;7.03;;
25637;SDS011;13496;51.040;13.680;2023-08-20T06:17:55;8.95;;;6.88;;
25637;SDS011;13496;51.040;13.680;2023-08-20T06:22:57;7.32;;;6.65;;
25637;SDS011;13496;51.040;13.680;2023-08-20T06:27:58;7.63;;;6.93;;
25637;SDS011;13496;51.040;13.680;2023-08-20T06:33:00;8.23;;;7.20;;
25637;SDS011;13496;51.040;13.680;2023-08-20T06:38:02;7.35;;;6.65;;
25637;SDS011;13496;51.040;13.680;2023-08-20T06:43:03;7.63;;;6.93;;
25637;SDS011;13496;51.040;13.680;2023-08-20T06:48:05;6.72;;;6.13;;
25637;SDS011;13496;51.040;13.680;2023-08-20T06:53:10;7.50;;;6.65;;
25637;SDS011;13496;51.040;13.680;2023-08-20T06:58:12;7.38;;;6.20;;
25637;SDS011;13496;51.040;13.680;2023-08-20T07:03:13;7.32;;;6.68;;
25637;SDS011;13496;51.040;13.680;2023-08-20T07:08:15;7.53;;;6.82;;
25637;SDS011;13496;51.040;13.680;2023-08-20T07:13:17;6.88;;;6.28;;
25637;SDS011;13496;51.040;13.680;2023-08-20T07:18:18;7.03;;;6.50;;
25637;SDS011;13496;51.040;13.680;2023-08-20T07:23:20;7.15;;;6.47;;
25637;SDS011;13496;51.040;13.680;2023-08-20T07:28:22;7.32;;;6.63;;
25637;SDS011;13496;51.040;13.680;2023-08-20T07:33:50;7.10;;;6.47;;
25637;SDS011;13496;51.040;13.680;2023-08-20T07:38:52;6.75;;;6.13;;
25637;SDS011;13496;51.040;13.680;2023-08-20T07:43:55;7.30;;;6.60;;
25637;SDS011;13496;51.040;13.680;2023-08-20T07:48:56;7.82;;;7.13;;
25637;SDS011;13496;51.040;13.680;2023-08-20T07:53:58;7.53;;;6.78;;
25637;SDS011;13496;51.040;13.680;2023-08-20T07:59:00;7.10;;;6.50;;
25637;SDS011;13496;51.040;13.680;2023-08-20T08:04:02;7.38;;;6.68;;
25637;SDS011;13496;51.040;13.680;2023-08-20T08:09:18;9.60;;;7.10;;
25637;SDS011;13496;51.040;13.680;2023-08-20T08:14:21;7.72;;;6.88;;
25637;SDS011;13496;51.040;13.680;2023-08-20T08:19:23;7.53;;;6.90;;
25637;SDS011;13496;51.040;13.680;2023-08-20T08:24:25;9.95;;;7.72;;
25637;SDS011;13496;51.040;13.680;2023-08-20T08:29:27;10.73;;;7.63;;
25637;SDS011;13496;51.040;13.680;2023-08-20T08:34:28;7.78;;;6.97;;
25637;SDS011;13496;51.040;13.680;2023-08-20T08:39:30;9.98;;;7.28;;
25637;SDS011;13496;51.040;13.680;2023-08-20T08:44:32;8.98;;;7.85;;
25637;SDS011;13496;51.040;13.680;2023-08-20T08:49:34;9.07;;;6.57;;
25637;SDS011;13496;51.040;13.680;2023-08-20T08:54:36;8.05;;;7.30;;
25637;SDS011;13496;51.040;13.680;2023-08-20T08:59:38;9.98;;;8.55;;
25637;SDS011;13496;51.040;13.680;2023-08-20T09:04:41;8.80;;;8.00;;
25637;SDS011;13496;51.040;13.680;2023-08-20T09:09:43;11.05;;;8.68;;
25637;SDS011;13496;51.040;13.680;2023-08-20T09:14:47;10.23;;;8.57;;
25637;SDS011;13496;51.040;13.680;2023-08-20T09:19:50;11.48;;;9.25;;
25637;SDS011;13496;51.040;13.680;2023-08-20T09:24:56;12.35;;;11.25;;
25637;SDS011;13496;51.040;13.680;2023-08-20T09:29:58;12.50;;;11.35;;
25637;SDS011;13496;51.040;13.680;2023-08-20T09:35:00;12.05;;;10.88;;
25637;SDS011;13496;51.040;13.680;2023-08-20T09:40:02;13.70;;;11.15;;
25637;SDS011;13496;51.040;13.680;2023-08-20T09:45:04;12.50;;;11.20;;
25637;SDS011;13496;51.040;13.680;2023-08-20T09:50:08;10.90;;;9.98;;
25637;SDS011;13496;51.040;13.680;2023-08-20T09:55:20;10.65;;;9.70;;
25637;SDS011;13496;51.040;13.680;2023-08-20T10:00:23;11.38;;;10.27;;
25637;SDS011;13496;51.040;13.680;2023-08-20T10:05:28;12.85;;;11.15;;
25637;SDS011;13496;51.040;13.680;2023-08-20T10:10:31;12.23;;;10.93;;
25637;SDS011;13496;51.040;13.680;2023-08-20T10:15:32;14.05;;;11.57;;
25637;SDS011;13496;51.040;13.680;2023-08-20T10:20:38;11.77;;;10.68;;
25637;SDS011;13496;51.040;13.680;2023-08-20T10:25:41;12.00;;;10.80;;
25637;SDS011;13496;51.040;13.680;2023-08-20T10:36:16;10.38;;;9.32;;
25637;SDS011;13496;51.040;13.680;2023-08-20T10:41:27;11.95;;;9.35;;
25637;SDS011;13496;51.040;13.680;2023-08-20T10:46:29;9.65;;;8.75;;
25637;SDS011;13496;51.040;13.680;2023-08-20T10:51:37;10.52;;;8.93;;
25637;SDS011;13496;51.040;13.680;2023-08-20T10:56:40;9.75;;;8.82;;
25637;SDS011;13496;51.040;13.680;2023-08-20T11:01:44;9.43;;;8.63;;
25637;SDS011;13496;51.040;13.680;2023-08-20T11:06:49;10.25;;;9.23;;
25637;SDS011;13496;51.040;13.680;2023-08-20T11:11:54;11.73;;;8.00;;
25637;SDS011;13496;51.040;13.680;2023-08-20T11:16:56;10.25;;;7.90;;
25637;SDS011;13496;51.040;13.680;2023-08-20T11:21:58;10.05;;;8.27;;
25637;SDS011;13496;51.040;13.680;2023-08-20T11:27:00;9.52;;;7.90;;
25637;SDS011;13496;51.040;13.680;2023-08-20T11:32:02;9.00;;;7.90;;
25637;SDS011;13496;51.040;13.680;2023-08-20T11:37:04;9.15;;;8.25;;
25637;SDS011;13496;51.040;13.680;2023-08-20T11:42:07;8.57;;;7.78;;
25637;SDS011;13496;51.040;13.680;2023-08-20T11:47:13;8.75;;;7.70;;
25637;SDS011;13496;51.040;13.680;2023-08-20T11:52:18;7.93;;;7.10;;
25637;SDS011;13496;51.040;13.680;2023-08-20T11:57:19;7.03;;;6.50;;
25637;SDS011;13496;51.040;13.680;2023-08-20T12:02:25;7.75;;;7.03;;
25637;SDS011;13496;51.040;13.680;2023-08-20T12:07:29;7.20;;;6.45;;
25637;SDS011;13496;51.040;13.680;2023-08-20T12:12:31;6.68;;;6.07;;
25637;SDS011;13496;51.040;13.680;2023-08-20T12:17:32;7.00;;;6.40;;
25637;SDS011;13496;51.040;13.680;2023-08-20T12:22:34;7.03;;;6.43;;
25637;SDS011;13496;51.040;13.680;2023-08-20T12:27:36;6.65;;;6.13;;
25637;SDS011;13496;51.040;13.680;2023-08-20T12:32:37;6.82;;;6.25;;
25637;SDS011;13496;51.040;13.680;2023-08-20T12:37:39;6.20;;;5.72;;
25637;SDS011;13496;51.040;13.680;2023-08-20T12:42:41;5.60;;;5.10;;
25637;SDS011;13496;51.040;13.680;2023-08-20T12:47:42;7.03;;;6.40;;
25637;SDS011;13496;51.040;13.680;2023-08-20T12:52:44;6.40;;;5.70;;
25637;SDS011;13496;51.040;13.680;2023-08-20T12:57:55;5.80;;;5.30;;
25637;SDS011;13496;51.040;13.680;2023-08-20T13:02:58;5.78;;;5.38;;
25637;SDS011;13496;51.040;13.680;2023-08-20T13:08:00;5.43;;;5.00;;
25637;SDS011;13496;51.040;13.680;2023-08-20T13:13:05;6.15;;;5.55;;
25637;SDS011;13496;51.040;13.680;2023-08-20T13:18:11;7.75;;;6.32;;
25637;SDS011;13496;51.040;13.680;2023-08-20T13:23:15;6.00;;;5.50;;
25637;SDS011;13496;51.040;13.680;2023-08-20T13:28:16;6.18;;;5.57;;
25637;SDS011;13496;51.040;13.680;2023-08-20T13:33:19;6.65;;;6.15;;
25637;SDS011;13496;51.040;13.680;2023-08-20T13:38:21;6.43;;;5.82;;
25637;SDS011;13496;51.040;13.680;2023-08-20T13:43:23;6.95;;;6.35;;
25637;SDS011;13496;51.040;13.680;2023-08-20T13:48:25;6.40;;;5.90;;
25637;SDS011;13496;51.040;13.680;2023-08-20T13:53:27;6.78;;;6.18;;
25637;SDS011;13496;51.040;13.680;2023-08-20T13:58:28;6.07;;;5.53;;
25637;SDS011;13496;51.040;13.680;2023-08-20T14:03:30;6.93;;;6.07;;
25637;SDS011;13496;51.040;13.680;2023-08-20T14:08:32;6.38;;;5.88;;
25637;SDS011;13496;51.040;13.680;2023-08-20T14:13:33;8.52;;;6.90;;
25637;SDS011;13496;51.040;13.680;2023-08-20T14:18:35;7.40;;;6.68;;
25637;SDS011;13496;51.040;13.680;2023-08-20T14:23:37;7.82;;;7.20;;
25637;SDS011;13496;51.040;13.680;2023-08-20T14:28:39;8.05;;;7.28;;
25637;SDS011;13496;51.040;13.680;2023-08-20T14:33:40;8.02;;;7.30;;
25637;SDS011;13496;51.040;13.680;2023-08-20T14:38:42;8.10;;;7.28;;
25637;SDS011;13496;51.040;13.680;2023-08-20T14:43:44;7.82;;;7.10;;
25637;SDS011;13496;51.040;13.680;2023-08-20T14:48:46;7.10;;;6.60;;
25637;SDS011;13496;51.040;13.680;2023-08-20T14:53:48;8.82;;;7.10;;
25637;SDS011;13496;51.040;13.680;2023-08-20T14:58:50;7.82;;;7.18;;
25637;SDS011;13496;51.040;13.680;2023-08-20T15:03:51;6.43;;;5.93;;
25637;SDS011;13496;51.040;13.680;2023-08-20T15:08:53;9.23;;;7.15;;
25637;SDS011;13496;51.040;13.680;2023-08-20T15:13:57;23.58;;;8.05;;
25637;SDS011;13496;51.040;13.680;2023-08-20T15:18:59;8.02;;;7.43;;
25637;SDS011;13496;51.040;13.680;2023-08-20T15:24:00;7.47;;;6.65;;
25637;SDS011;13496;51.040;13.680;2023-08-20T15:29:02;7.50;;;6.85;;
25637;SDS011;13496;51.040;13.680;2023-08-20T15:34:04;7.10;;;6.40;;
25637;SDS011;13496;51.040;13.680;2023-08-20T15:39:06;6.82;;;6.10;;
25637;SDS011;13496;51.040;13.680;2023-08-20T15:44:08;7.88;;;7.05;;
25637;SDS011;13496;51.040;13.680;2023-08-20T15:49:09;7.95;;;7.25;;
25637;SDS011;13496;51.040;13.680;2023-08-20T15:54:11;9.15;;;8.45;;
25637;SDS011;13496;51.040;13.680;2023-08-20T15:59:13;7.85;;;7.15;;
25637;SDS011;13496;51.040;13.680;2023-08-20T16:04:14;9.25;;;8.35;;
25637;SDS011;13496;51.040;13.680;2023-08-20T16:09:16;9.43;;;8.48;;
25637;SDS011;13496;51.040;13.680;2023-08-20T16:14:18;8.95;;;7.93;;
25637;SDS011;13496;51.040;13.680;2023-08-20T16:19:21;8.82;;;8.02;;
25637;SDS011;13496;51.040;13.680;2023-08-20T16:24:22;8.05;;;7.18;;
25637;SDS011;13496;51.040;13.680;2023-08-20T16:29:24;7.57;;;6.95;;
25637;SDS011;13496;51.040;13.680;2023-08-20T16:34:26;8.55;;;7.50;;
25637;SDS011;13496;51.040;13.680;2023-08-20T16:39:31;6.90;;;6.30;;
25637;SDS011;13496;51.040;13.680;2023-08-20T16:44:32;6.82;;;5.55;;
25637;SDS011;13496;51.040;13.680;2023-08-20T16:49:34;5.72;;;5.30;;
25637;SDS011;13496;51.040;13.680;2023-08-20T16:54:36;6.63;;;6.00;;
25637;SDS011;13496;51.040;13.680;2023-08-20T16:59:38;7.68;;;5.53;;
25637;SDS011;13496;51.040;13.680;2023-08-20T17:04:40;5.43;;;4.93;;
25637;SDS011;13496;51.040;13.680;2023-08-20T17:09:42;5.85;;;5.35;;
25637;SDS011;13496;51.040;13.680;2023-08-20T17:14:43;6.05;;;5.22;;
25637;SDS011;13496;51.040;13.680;2023-08-20T17:19:45;5.60;;;5.00;;
25637;SDS011;13496;51.040;13.680;2023-08-20T17:24:47;5.40;;;5.00;;
25637;SDS011;13496;51.040;13.680;2023-08-20T17:29:49;6.07;;;4.57;;
25637;SDS011;13496;51.040;13.680;2023-08-20T17:34:50;41.10;;;8.88;;
25637;SDS011;13496;51.040;13.680;2023-08-20T17:39:52;42.92;;;8.45;;
25637;SDS011;13496;51.040;13.680;2023-08-20T17:44:54;32.63;;;8.68;;
25637;SDS011;13496;51.040;13.680;2023-08-20T17:49:55;31.27;;;8.73;;
25637;SDS011;13496;51.040;13.680;2023-08-20T17:54:57;26.08;;;7.13;;
25637;SDS011;13496;51.040;13.680;2023-08-20T17:59:59;17.40;;;7.00;;
25637;SDS011;13496;51.040;13.680;2023-08-20T18:05:01;22.95;;;7.72;;
25637;SDS011;13496;51.040;13.680;2023-08-20T18:10:05;39.08;;;9.13;;
25637;SDS011;13496;51.040;13.680;2023-08-20T18:15:08;9.93;;;4.43;;
25637;SDS011;13496;51.040;13.680;2023-08-20T18:20:10;11.85;;;5.38;;
25637;SDS011;13496;51.040;13.680;2023-08-20T18:25:16;9.02;;;5.50;;
25637;SDS011;13496;51.040;13.680;2023-08-20T18:30:17;9.40;;;5.53;;
25637;SDS011;13496;51.040;13.680;2023-08-20T18:35:19;9.23;;;5.00;;
25637;SDS011;13496;51.040;13.680;2023-08-20T18:40:21;9.10;;;5.30;;
25637;SDS011;13496;51.040;13.680;2023-08-20T18:45:23;6.07;;;5.35;;
25637;SDS011;13496;51.040;13.680;2023-08-20T18:50:25;7.45;;;5.20;;
25637;SDS011;13496;51.040;13.680;2023-08-20T18:55:26;7.35;;;5.10;;
25637;SDS011;13496;51.040;13.680;2023-08-20T19:00:28;6.45;;;5.00;;
25637;SDS011;13496;51.040;13.680;2023-08-20T19:05:30;5.45;;;4.75;;
25637;SDS011;13496;51.040;13.680;2023-08-20T19:10:32;7.13;;;4.68;;
25637;SDS011;13496;51.040;13.680;2023-08-20T19:15:44;5.05;;;4.50;;
25637;SDS011;13496;51.040;13.680;2023-08-20T19:20:50;5.43;;;4.88;;
25637;SDS011;13496;51.040;13.680;2023-08-20T19:25:53;6.55;;;5.28;;
25637;SDS011;13496;51.040;13.680;2023-08-20T19:30:55;8.77;;;5.15;;
25637;SDS011;13496;51.040;13.680;2023-08-20T19:35:57;6.18;;;5.32;;
25637;SDS011;13496;51.040;13.680;2023-08-20T19:40:59;6.25;;;5.65;;
25637;SDS011;13496;51.040;13.680;2023-08-20T19:46:01;7.10;;;5.93;;
25637;SDS011;13496;51.040;13.680;2023-08-20T19:51:02;8.60;;;6.20;;
25637;SDS011;13496;51.040;13.680;2023-08-20T19:56:05;6.85;;;6.25;;
25637;SDS011;13496;51.040;13.680;2023-08-20T20:01:07;6.22;;;5.63;;
25637;SDS011;13496;51.040;13.680;2023-08-20T20:06:09;7.00;;;6.10;;
25637;SDS011;13496;51.040;13.680;2023-08-20T20:11:11;35.90;;;9.90;;
25637;SDS011;13496;51.040;13.680;2023-08-20T20:16:13;8.40;;;6.38;;
25637;SDS011;13496;51.040;13.680;2023-08-20T20:21:14;10.75;;;6.53;;
25637;SDS011;13496;51.040;13.680;2023-08-20T20:26:16;11.98;;;6.68;;
25637;SDS011;13496;51.040;13.680;2023-08-20T20:31:21;8.57;;;6.25;;
25637;SDS011;13496;51.040;13.680;2023-08-20T20:36:23;7.07;;;6.35;;
25637;SDS011;13496;51.040;13.680;2023-08-20T20:41:25;9.20;;;6.53;;
25637;SDS011;13496;51.040;13.680;2023-08-20T20:46:26;8.82;;;6.57;;
25637;SDS011;13496;51.040;13.680;2023-08-20T20:51:28;8.98;;;6.28;;
25637;SDS011;13496;51.040;13.680;2023-08-20T20:56:30;7.55;;;6.75;;
25637;SDS011;13496;51.040;13.680;2023-08-20T21:01:32;8.43;;;6.22;;
25637;SDS011;13496;51.040;13.680;2023-08-20T21:06:34;9.07;;;6.35;;
25637;SDS011;13496;51.040;13.680;2023-08-20T21:11:35;7.25;;;6.35;;
25637;SDS011;13496;51.040;13.680;2023-08-20T21:16:37;7.20;;;6.50;;
25637;SDS011;13496;51.040;13.680;2023-08-20T21:21:40;6.50;;;5.90;;
25637;SDS011;13496;51.040;13.680;2023-08-20T21:26:42;7.53;;;6.72;;
25637;SDS011;13496;51.040;13.680;2023-08-20T21:31:44;8.55;;;6.47;;
25637;SDS011;13496;51.040;13.680;2023-08-20T21:36:45;8.30;;;6.75;;
25637;SDS011;13496;51.040;13.680;2023-08-20T21:41:47;7.82;;;6.75;;
25637;SDS011;13496;51.040;13.680;2023-08-20T21:46:52;8.52;;;6.50;;
25637;SDS011;13496;51.040;13.680;2023-08-20T21:51:55;10.50;;;7.05;;
25637;SDS011;13496;51.040;13.680;2023-08-20T21:56:57;8.95;;;6.47;;
25637;SDS011;13496;51.040;13.680;2023-08-20T22:01:59;8.68;;;7.07;;
25637;SDS011;13496;51.040;13.680;2023-08-20T22:07:00;8.20;;;6.55;;
25637;SDS011;13496;51.040;13.680;2023-08-20T22:12:02;6.70;;;6.00;;
25637;SDS011;13496;51.040;13.680;2023-08-20T22:17:04;6.90;;;6.28;;
25637;SDS011;13496;51.040;13.680;2023-08-20T22:22:06;7.13;;;6.47;;
25637;SDS011;13496;51.040;13.680;2023-08-20T22:27:08;7.63;;;6.85;;
25637;SDS011;13496;51.040;13.680;2023-08-20T22:32:09;7.32;;;6.57;;
25637;SDS011;13496;51.040;13.680;2023-08-20T22:37:11;7.78;;;6.78;;
25637;SDS011;13496;51.040;13.680;2023-08-20T22:42:13;7.00;;;6.38;;
25637;SDS011;13496;51.040;13.680;2023-08-20T22:47:15;6.63;;;5.85;;
25637;SDS011;13496;51.040;13.680;2023-08-20T22:52:16;7.85;;;7.05;;
25637;SDS011;13496;51.040;13.680;2023-08-20T22:57:18;6.78;;;5.95;;
25637;SDS011;13496;51.040;13.680;2023-08-20T23:02:20;6.45;;;5.95;;
25637;SDS011;13496;51.040;13.680;2023-08-20T23:07:22;7.60;;;6.63;;
25637;SDS011;13496;51.040;13.680;2023-08-20T23:12:24;7.32;;;5.80;;
25637;SDS011;13496;51.040;13.680;2023-08-20T23:17:25;8.15;;;6.65;;
25637;SDS011;13496;51.040;13.680;2023-08-20T23:22:28;7.13;;;6.20;;
25637;SDS011;13496;51.040;13.680;2023-08-20T23:27:30;6.20;;;5.63;;
25637;SDS011;13496;51.040;13.680;2023-08-20T23:32:32;6.55;;;5.82;;
25637;SDS011;13496;51.040;13.680;2023-08-20T23:37:34;7.57;;;6.57;;
25637;SDS011;13496;51.040;13.680;2023-08-20T23:42:35;7.20;;;6.10;;
25637;SDS011;13496;51.040;13.680;2023-08-20T23:47:37;6.32;;;5.72;;
25637;SDS011;13496;51.040;13.680;2023-08-20T23:52:39;6.72;;;5.53;;
25637;SDS011;13496;51.040;13.680;2023-08-20T23:57:40;6.53;;;5.20;;
